createdAt,value
2023-03-27T00:02:04.989Z,1.77
2023-03-27T00:06:59.584Z,1.90
2023-03-27T00:09:27.816Z,1.75
2023-03-27T00:11:56.326Z,2.75
2023-03-27T00:14:32.313Z,1.98
2023-03-27T00:17:00.272Z,1.70
2023-03-27T00:19:27.015Z,2.78
2023-03-27T00:21:53.657Z,1.58
2023-03-27T00:26:46.627Z,1.70
2023-03-27T00:29:13.515Z,1.80
2023-03-27T00:31:40.073Z,1.58
2023-03-27T00:34:06.737Z,1.67
2023-03-27T00:38:59.596Z,1.88
2023-03-27T00:41:26.205Z,2.00
2023-03-27T00:46:31.769Z,2.42
2023-03-27T00:49:01.912Z,2.30
2023-03-27T00:51:37.093Z,2.03
2023-03-27T00:54:04.650Z,1.38
2023-03-27T00:56:33.813Z,1.55
2023-03-27T00:59:05.131Z,2.00
2023-03-27T01:01:32.359Z,1.77
2023-03-27T01:04:02.331Z,1.88
2023-03-27T01:06:30.072Z,1.55
2023-03-27T01:08:56.753Z,2.13
2023-03-27T01:18:11.672Z,1.83
2023-03-27T01:21:07.101Z,2.08
2023-03-27T01:24:11.545Z,1.70
2023-03-27T01:27:00.377Z,1.80
2023-03-27T01:29:38.217Z,1.30
2023-03-27T01:32:26.245Z,1.52
2023-03-27T01:35:25.974Z,1.75
2023-03-27T01:38:30.675Z,1.23
2023-03-27T01:41:04.656Z,2.22
2023-03-27T01:43:48.870Z,1.30
2023-03-27T01:46:21.669Z,1.33
2023-03-27T01:49:04.708Z,1.30
2023-03-27T01:51:36.788Z,1.48
2023-03-27T01:54:17.208Z,2.78
2023-03-27T01:56:53.656Z,1.67
2023-03-27T01:59:25.029Z,1.80
2023-03-27T02:01:59.180Z,1.30
2023-03-27T02:04:33.480Z,1.38
2023-03-27T02:07:11.985Z,1.20
2023-03-27T02:09:46.204Z,1.33
2023-03-27T02:12:20.156Z,1.35
2023-03-27T02:14:56.143Z,1.38
2023-03-27T02:17:26.937Z,1.52
2023-03-27T02:20:16.286Z,2.03
2023-03-27T02:22:53.683Z,1.40
2023-03-27T02:25:23.379Z,1.80
2023-03-27T02:27:56.600Z,1.23
2023-03-27T02:30:31.281Z,1.38
2023-03-27T02:33:42.562Z,1.67
2023-03-27T02:36:41.486Z,1.27
2023-03-27T02:39:18.753Z,1.02
2023-03-27T02:44:53.540Z,1.10
2023-03-27T02:47:28.663Z,1.08
2023-03-27T02:50:02.980Z,1.15
2023-03-27T02:52:33.706Z,1.10
2023-03-27T02:55:11.907Z,1.27
2023-03-27T02:57:39.231Z,1.20
2023-03-27T03:00:25.412Z,1.00
2023-03-27T03:03:00.656Z,0.90
2023-03-27T03:05:38.144Z,1.08
2023-03-27T03:08:05.751Z,1.38
2023-03-27T03:10:33.335Z,0.98
2023-03-27T03:12:59.900Z,1.27
2023-03-27T03:15:26.349Z,1.00
2023-03-27T03:17:53.128Z,0.80
2023-03-27T03:20:19.638Z,0.80
2023-03-27T03:22:48.894Z,0.88
2023-03-27T03:25:15.398Z,1.52
2023-03-27T03:27:41.812Z,1.08
2023-03-27T03:30:11.955Z,1.15
2023-03-27T03:32:43.558Z,1.17
2023-03-27T03:35:13.664Z,1.13
2023-03-27T03:37:40.533Z,1.38
2023-03-27T03:40:12.199Z,1.50
2023-03-27T03:42:58.204Z,1.05
2023-03-27T03:45:42.171Z,1.63
2023-03-27T03:48:08.696Z,1.02
2023-03-27T03:50:35.193Z,1.55
2023-03-27T03:53:01.681Z,1.70
2023-03-27T03:55:28.137Z,1.00
2023-03-27T03:57:54.601Z,1.08
2023-03-27T04:00:22.964Z,1.33
2023-03-27T04:02:54.899Z,1.35
2023-03-27T04:05:37.479Z,1.95
2023-03-27T04:08:07.415Z,1.30
2023-03-27T04:10:36.282Z,1.38
2023-03-27T04:13:03.198Z,1.00
2023-03-27T04:15:29.736Z,1.40
2023-03-27T04:17:57.852Z,1.15
2023-03-27T04:20:26.578Z,1.23
2023-03-27T04:22:54.462Z,0.85
2023-03-27T04:25:36.758Z,1.40
2023-03-27T04:28:03.252Z,1.27
2023-03-27T04:30:29.921Z,1.17
2023-03-27T04:35:26.849Z,1.10
2023-03-27T04:40:19.985Z,1.20
2023-03-27T04:45:23.615Z,1.40
2023-03-27T04:47:50.158Z,1.23
2023-03-27T04:52:44.078Z,1.42
2023-03-27T04:55:12.396Z,1.80
2023-03-27T04:57:42.643Z,1.63
2023-03-27T05:00:23.828Z,1.85
2023-03-27T05:02:59.132Z,2.15
2023-03-27T05:05:35.111Z,1.88
2023-03-27T05:08:01.700Z,1.77
2023-03-27T05:13:00.571Z,1.90
2023-03-27T05:15:30.316Z,2.08
2023-03-27T05:17:56.974Z,2.30
2023-03-27T05:23:04.464Z,2.45
2023-03-27T05:25:37.261Z,2.90
2023-03-27T05:28:14.343Z,2.58
2023-03-27T05:30:42.406Z,3.60
2023-03-27T05:33:09.527Z,4.15
2023-03-27T05:35:36.422Z,4.10
2023-03-27T05:38:02.906Z,2.97
2023-03-27T05:40:29.736Z,4.20
2023-03-27T05:42:56.532Z,2.10
2023-03-27T05:45:24.255Z,2.20
2023-03-27T05:47:57.926Z,1.63
2023-03-27T05:50:30.876Z,1.30
2023-03-27T05:53:01.018Z,1.70
2023-03-27T05:55:28.435Z,1.52
2023-03-27T05:57:55.354Z,1.92
2023-03-27T06:00:34.421Z,1.88
2023-03-27T06:03:03.175Z,1.40
2023-03-27T06:05:30.634Z,1.30
2023-03-27T06:08:32.556Z,1.70
2023-03-27T06:49:38.933Z,2.53
2023-03-27T06:52:05.949Z,2.17
2023-03-27T06:54:32.602Z,1.92
2023-03-27T07:22:14.648Z,1.50
2023-03-27T07:33:35.902Z,1.73
2023-03-27T07:43:27.274Z,1.50
2023-03-27T07:46:09.001Z,1.27
2023-03-27T07:48:35.955Z,1.85
2023-03-27T07:51:13.462Z,1.08
2023-03-27T07:53:41.684Z,1.55
2023-03-27T07:56:08.945Z,1.40
2023-03-27T07:58:35.517Z,1.70
2023-03-27T08:01:03.281Z,1.73
2023-03-27T08:03:30.951Z,1.10
2023-03-27T08:06:00.109Z,1.50
2023-03-27T08:08:27.405Z,1.23
2023-03-27T08:11:13.485Z,1.27
2023-03-27T08:13:47.219Z,0.90
2023-03-27T08:16:24.965Z,1.27
2023-03-27T08:18:51.588Z,1.23
2023-03-27T08:21:18.651Z,1.33
2023-03-27T08:23:47.524Z,1.60
2023-03-27T08:26:48.206Z,1.20
2023-03-27T08:29:29.463Z,0.80
2023-03-27T08:32:01.996Z,1.35
2023-03-27T08:34:29.581Z,1.15
2023-03-27T08:36:56.308Z,1.10
2023-03-27T08:42:19.292Z,2.92
2023-03-27T08:44:55.134Z,1.20
2023-03-27T08:47:50.630Z,1.38
2023-03-27T08:50:48.062Z,1.52
2023-03-27T08:56:25.868Z,1.50
2023-03-27T08:58:54.473Z,1.17
2023-03-27T09:01:40.127Z,1.30
2023-03-27T09:05:07.165Z,1.30
2023-03-27T09:07:37.387Z,1.05
2023-03-27T09:10:40.748Z,1.00
2023-03-27T09:13:19.604Z,1.00
2023-03-27T09:16:53.870Z,0.70
2023-03-27T09:19:31.531Z,0.95
2023-03-27T09:22:04.506Z,1.30
2023-03-27T09:25:43.742Z,1.00
2023-03-27T09:28:21.137Z,0.90
2023-03-27T09:30:48.773Z,1.15
2023-03-27T09:33:19.214Z,1.40
2023-03-27T09:35:52.649Z,1.40
2023-03-27T09:38:24.820Z,1.13
2023-03-27T09:40:57.104Z,1.10
2023-03-27T09:43:29.966Z,0.93
2023-03-27T09:45:57.947Z,0.80
2023-03-27T09:48:40.650Z,1.15
2023-03-27T09:51:36.504Z,1.17
2023-03-27T09:54:04.089Z,1.17
2023-03-27T09:56:31.173Z,1.10
2023-03-27T09:59:20.589Z,0.68
2023-03-27T10:01:49.083Z,0.82
2023-03-27T10:04:19.225Z,0.80
2023-03-27T10:07:02.053Z,0.88
2023-03-27T10:09:34.853Z,1.00
2023-03-27T10:12:07.846Z,1.00
2023-03-27T10:14:43.568Z,1.10
2023-03-27T10:17:23.813Z,1.10
2023-03-27T10:19:55.129Z,0.75
2023-03-27T10:22:31.560Z,0.70
2023-03-27T10:25:00.912Z,0.80
2023-03-27T10:27:33.593Z,1.20
2023-03-27T10:30:25.384Z,0.90
2023-03-27T10:33:32.499Z,1.08
2023-03-27T10:36:07.895Z,0.77
2023-03-27T10:38:45.003Z,0.80
2023-03-27T10:41:28.654Z,0.75
2023-03-27T10:44:26.121Z,0.75
2023-03-27T10:46:55.415Z,0.82
2023-03-27T10:50:10.491Z,0.80
2023-03-27T10:56:28.266Z,0.80
2023-03-27T10:59:38.366Z,0.80
2023-03-27T11:02:23.354Z,1.27
2023-03-27T11:05:22.770Z,0.80
2023-03-27T11:07:58.479Z,0.77
2023-03-27T11:10:36.786Z,1.00
2023-03-27T11:13:19.738Z,0.75
2023-03-27T11:16:11.819Z,1.23
2023-03-27T11:22:39.074Z,0.95
2023-03-27T11:25:16.622Z,0.60
2023-03-27T11:28:07.819Z,0.65
2023-03-27T11:30:43.591Z,0.80
2023-03-27T11:33:40.199Z,0.93
2023-03-27T11:36:10.122Z,0.90
2023-03-27T11:38:52.841Z,0.93
2023-03-27T11:41:21.851Z,0.85
2023-03-27T11:43:48.651Z,0.98
2023-03-27T11:48:59.061Z,0.80
2023-03-27T11:51:43.998Z,1.20
2023-03-27T11:54:29.964Z,0.93
2023-03-27T11:57:01.216Z,0.70
2023-03-27T11:59:48.602Z,0.47
2023-03-27T12:02:41.074Z,0.70
2023-03-27T12:05:40.751Z,0.60
2023-03-27T12:08:41.296Z,0.77
2023-03-27T12:11:11.141Z,0.90
2023-03-27T12:14:02.199Z,0.80
2023-03-27T12:16:44.779Z,0.82
2023-03-27T12:19:28.603Z,1.27
2023-03-27T12:22:21.101Z,0.70
2023-03-27T12:25:20.681Z,0.90
2023-03-27T12:28:22.743Z,1.17
2023-03-27T12:31:23.660Z,0.63
2023-03-27T12:34:06.288Z,0.70
2023-03-27T12:36:39.487Z,0.93
2023-03-27T12:39:18.701Z,0.90
2023-03-27T12:41:45.977Z,0.52
2023-03-27T12:44:14.864Z,1.23
2023-03-27T12:46:42.240Z,1.08
2023-03-27T12:49:10.788Z,0.70
2023-03-27T12:51:54.107Z,0.88
2023-03-27T12:54:35.394Z,0.93
2023-03-27T12:57:23.186Z,0.90
2023-03-27T13:02:34.734Z,0.80
2023-03-27T13:05:26.962Z,1.05
2023-03-27T13:08:12.181Z,0.60
2023-03-27T13:11:17.256Z,0.85
2023-03-27T13:13:52.930Z,1.25
2023-03-27T13:16:40.331Z,0.80
2023-03-27T13:19:37.980Z,1.05
2023-03-27T13:22:39.585Z,0.90
2023-03-27T13:25:15.940Z,1.05
2023-03-27T13:28:07.536Z,1.95
2023-03-27T13:30:43.224Z,0.90
2023-03-27T13:33:11.891Z,1.10
2023-03-27T13:35:41.418Z,1.00
2023-03-27T13:38:10.561Z,0.90
2023-03-27T13:40:40.571Z,1.00
2023-03-27T13:43:32.164Z,0.95
2023-03-27T13:46:01.463Z,0.80
2023-03-27T13:49:05.128Z,0.90
2023-03-27T13:52:32.028Z,1.20
2023-03-27T13:55:17.162Z,0.82
2023-03-27T13:58:13.302Z,1.30
2023-03-27T14:00:57.964Z,1.13
2023-03-27T14:03:53.682Z,0.82
2023-03-27T14:06:45.122Z,1.00
2023-03-27T14:09:42.701Z,0.95
2023-03-27T14:12:31.189Z,0.90
2023-03-27T14:15:43.135Z,1.00
2023-03-27T14:18:47.092Z,0.88
2023-03-27T14:21:31.298Z,0.82
2023-03-27T14:24:18.383Z,0.90
2023-03-27T14:26:45.899Z,1.13
2023-03-27T14:29:12.458Z,0.82
2023-03-27T14:31:38.987Z,1.73
2023-03-27T14:34:35.331Z,0.80
2023-03-27T14:37:47.216Z,1.38
2023-03-27T14:43:47.414Z,0.80
2023-03-27T14:46:14.454Z,1.35
2023-03-27T14:48:45.031Z,1.17
2023-03-27T14:51:16.214Z,0.90
2023-03-27T14:53:45.464Z,0.80
2023-03-27T14:56:27.281Z,1.08
2023-03-27T14:58:58.463Z,1.15
2023-03-27T15:04:14.295Z,1.17
2023-03-27T15:06:41.821Z,0.80
2023-03-27T15:09:26.350Z,1.05
2023-03-27T15:11:56.816Z,1.45
2023-03-27T15:15:06.280Z,1.00
2023-03-27T15:17:34.748Z,1.30
2023-03-27T15:20:10.055Z,1.25
2023-03-27T15:23:06.678Z,1.10
2023-03-27T15:25:45.523Z,0.82
2023-03-27T15:28:22.168Z,0.90
2023-03-27T15:31:43.415Z,1.02
2023-03-27T15:35:05.592Z,0.80
2023-03-27T15:37:32.981Z,0.82
2023-03-27T15:40:13.674Z,1.00
2023-03-27T15:42:52.876Z,0.85
2023-03-27T15:45:34.265Z,0.85
2023-03-27T15:48:19.139Z,0.82
2023-03-27T15:50:58.781Z,0.93
2023-03-27T15:53:44.918Z,0.90
2023-03-27T15:56:35.192Z,0.98
2023-03-27T15:59:06.962Z,1.45
2023-03-27T16:02:20.036Z,1.10
2023-03-27T16:04:55.423Z,1.02
2023-03-27T16:07:42.168Z,3.10
2023-03-27T16:10:11.205Z,0.80
2023-03-27T16:12:40.809Z,0.80
2023-03-27T16:15:41.519Z,0.70
2023-03-27T16:18:22.028Z,0.88
2023-03-27T16:20:48.988Z,0.60
2023-03-27T16:23:29.725Z,0.90
2023-03-27T16:25:56.894Z,0.73
2023-03-27T16:28:25.097Z,0.60
2023-03-27T16:30:51.974Z,0.45
2023-03-27T16:33:22.474Z,0.82
2023-03-27T16:35:52.799Z,0.70
2023-03-27T16:38:20.099Z,0.57
2023-03-27T16:40:46.645Z,0.52
2023-03-27T16:43:13.439Z,0.68
2023-03-27T16:46:05.085Z,0.80
2023-03-27T16:48:31.563Z,0.63
2023-03-27T16:50:58.045Z,0.85
2023-03-27T16:53:24.554Z,0.50
2023-03-27T16:58:41.370Z,0.95
2023-03-27T17:01:09.260Z,0.60
2023-03-27T17:03:38.736Z,0.50
2023-03-27T17:06:11.543Z,0.60
2023-03-27T17:08:38.342Z,0.60
2023-03-27T17:11:08.275Z,0.70
2023-03-27T17:13:36.008Z,0.80
2023-03-27T17:16:03.704Z,0.70
2023-03-27T17:18:30.413Z,0.73
2023-03-27T17:24:21.246Z,0.60
2023-03-27T17:27:30.560Z,0.77
2023-03-27T17:29:57.671Z,0.80
2023-03-27T17:32:38.997Z,0.63
2023-03-27T17:35:09.145Z,0.70
2023-03-27T17:37:36.083Z,0.82
2023-03-27T17:40:07.238Z,0.80
2023-03-27T17:42:33.781Z,1.20
2023-03-27T17:45:00.392Z,4.03
2023-03-27T17:47:26.963Z,1.70
2023-03-27T17:49:54.810Z,0.90
2023-03-27T17:52:41.835Z,1.40
2023-03-27T17:55:20.857Z,0.68
2023-03-27T17:57:53.098Z,0.98
2023-03-27T18:00:29.653Z,1.15
2023-03-27T18:07:50.088Z,0.82
2023-03-27T18:10:20.740Z,0.90
2023-03-27T18:12:48.009Z,0.90
2023-03-27T18:15:26.928Z,0.88
2023-03-27T18:18:19.902Z,1.00
2023-03-27T18:25:26.962Z,0.85
2023-03-27T18:27:53.442Z,0.68
2023-03-27T18:33:32.298Z,0.85
2023-03-27T18:36:01.843Z,0.70
2023-03-27T18:38:37.660Z,0.73
2023-03-27T18:41:11.021Z,0.80
2023-03-27T18:44:13.105Z,0.52
2023-03-27T18:49:36.896Z,0.70
2023-03-27T18:55:18.213Z,0.75
2023-03-27T18:57:56.626Z,1.42
2023-03-27T19:00:23.376Z,0.60
2023-03-27T19:02:50.277Z,0.80
2023-03-27T19:05:33.160Z,1.00
2023-03-27T19:07:59.651Z,1.00
2023-03-27T19:10:26.311Z,0.60
2023-03-27T19:15:30.053Z,0.95
2023-03-27T19:26:48.153Z,0.70
2023-03-27T19:33:20.595Z,0.77
2023-03-27T19:39:45.492Z,1.08
2023-03-27T19:43:05.123Z,0.98
2023-03-27T20:05:51.626Z,0.93
2023-03-27T20:15:25.745Z,0.70
2023-03-27T20:22:20.791Z,1.10
2023-03-27T20:25:33.025Z,0.80
2023-03-27T20:54:19.984Z,1.33
2023-03-27T20:57:02.474Z,1.05
2023-03-27T20:59:38.144Z,1.20
2023-03-27T21:05:13.710Z,0.93
2023-03-27T21:07:41.302Z,1.15
2023-03-27T21:10:31.202Z,0.95
2023-03-27T21:12:57.886Z,1.42
2023-03-27T21:17:54.541Z,0.95
2023-03-27T21:27:59.092Z,1.15
2023-03-27T21:33:16.298Z,0.70
2023-03-27T21:35:52.625Z,0.98
2023-03-27T21:38:19.210Z,1.13
2023-03-27T21:48:01.226Z,0.88
2023-03-27T21:53:03.555Z,0.60
2023-03-27T21:58:20.452Z,0.73
2023-03-27T22:03:35.299Z,0.73
2023-03-27T22:06:38.183Z,1.10
2023-03-27T22:09:31.679Z,0.55
2023-03-27T22:12:20.395Z,0.80
2023-03-27T22:14:47.050Z,0.77
2023-03-27T22:19:43.492Z,1.40
2023-03-27T22:24:36.471Z,0.90
2023-03-27T22:27:03.106Z,0.75
2023-03-27T22:33:00.997Z,1.35
2023-03-27T22:35:27.575Z,0.73
2023-03-27T22:38:07.455Z,0.77
2023-03-27T22:40:34.187Z,1.77
2023-03-27T22:45:41.553Z,1.20
2023-03-27T22:50:43.019Z,0.70
2023-03-27T22:53:09.702Z,0.90
2023-03-27T22:58:02.672Z,1.00
2023-03-27T23:00:31.653Z,1.85
2023-03-27T23:03:01.911Z,0.70
2023-03-27T23:05:30.833Z,1.00
2023-03-27T23:07:57.451Z,0.73
2023-03-27T23:13:15.530Z,1.05
2023-03-27T23:15:42.126Z,0.80
2023-03-27T23:18:18.295Z,1.08
2023-03-27T23:20:45.149Z,0.60
2023-03-27T23:23:40.454Z,0.90
2023-03-27T23:26:22.645Z,1.90
2023-03-27T23:29:08.192Z,1.75
2023-03-27T23:31:44.150Z,0.88
2023-03-27T23:34:11.014Z,0.73
2023-03-27T23:36:37.676Z,0.90
2023-03-27T23:41:30.806Z,1.33
2023-03-27T23:46:26.249Z,0.52
2023-03-27T23:51:19.193Z,0.32
2023-03-27T23:53:45.903Z,0.65
2023-03-27T23:56:12.641Z,1.58
2023-03-27T23:58:39.657Z,1.00
